Date,TemperatureHighF,TemperatureAvgF,TemperatureLowF,DewpointHighF,DewpointAvgF,DewpointLowF,HumidityHigh,HumidityAvg,HumidityLow,PressureMaxIn,PressureMinIn,WindSpeedMaxMPH,WindSpeedAvgMPH,GustSpeedMaxMPH,PrecipitationSumIn
2013-1-1,16,8,0,2,-1,-6,75,65,51,30.32,30.17,1,0,5,0.01
2013-1-2,29,20,10,26,14,2,87,77,66,30.17,30.03,4,1,6,0.00
2013-1-3,30,21,10,26,14,6,86,76,64,30.36,30.15,4,1,8,0.00
2013-1-4,37,25,10,22,17,6,87,73,52,30.30,30.15,4,1,7,0.04
2013-1-5,38,31,24,32,24,18,86,78,70,30.14,29.91,6,2,11,0.11
2013-1-6,29,22,15,18,14,8,78,71,61,30.29,30.06,5,1,12,0.00
2013-1-7,45,35,24,27,23,18,75,63,46,30.18,29.96,5,1,10,0.01
2013-1-8,48,37,30,32,28,24,81,71,53,30.03,29.80,2,1,8,0.00
2013-1-9,45,38,32,32,29,26,84,71,57,30.38,30.04,2,0,10,0.00
2013-1-10,45,37,32,36,30,21,95,77,40,30.33,29.66,2,0,3,0.18
2013-1-11,54,46,37,48,42,36,97,89,71,29.68,29.40,4,1,8,0.03
2013-1-12,52,33,22,43,24,10,83,72,57,29.91,29.48,8,5,16,0.00
2013-1-13,18,15,12,7,5,2,66,63,60,30.32,30.21,5,0,11,0.00
2013-1-14,28,18,7,10,5,1,77,58,36,30.48,30.33,3,0,3,0.00
2013-1-15,33,23,15,14,10,7,75,57,39,30.38,30.05,2,0,5,0.00
2013-1-16,46,33,20,32,22,9,82,64,55,30.15,29.86,5,2,12,0.00
2013-1-17,36,27,17,28,16,9,82,64,43,30.42,30.16,2,0,7,0.00
2013-1-18,56,43,27,32,29,20,78,60,39,30.32,29.83,8,2,17,0.00
2013-1-19,54,41,19,32,28,5,73,59,36,30.20,29.76,8,3,14,0.00
2013-1-20,19,14,8,9,4,0,76,66,50,30.36,30.20,6,1,21,0.00
2013-1-21,10,5,-2,2,-6,-15,74,61,51,30.45,30.34,6,2,16,0.00
2013-1-22,15,10,3,2,-3,-7,70,56,45,30.44,30.31,2,0,3,0.00
2013-1-23,29,17,6,16,6,-6,73,61,47,30.50,30.17,6,2,10,0.00
2013-1-24,20,11,3,4,-5,-9,60,49,33,30.59,30.22,2,0,8,0.00
2013-1-25,40,26,15,23,14,4,76,60,47,30.26,30.08,6,2,9,0.00
2013-1-26,37,22,8,14,6,0,70,51,32,30.33,30.13,1,0,6,0.00
2013-1-27,42,35,30,40,30,14,96,84,51,30.12,29.67,1,0,7,0.21
2013-1-28,50,40,35,50,39,34,99,97,96,29.85,29.52,2,0,3,0.08
2013-1-29,59,40,32,58,39,31,99,97,93,29.60,29.44,6,1,7,0.00
2013-1-30,32,23,15,31,20,9,96,88,73,29.84,29.43,8,4,13,0.00
2013-1-31,15,6,-1,8,-3,-11,76,67,61,30.39,29.84,7,3,17,0.01
2013-2-1,24,6,-8,14,-4,-15,70,63,52,30.42,30.06,4,0,8,0.00
2013-2-2,29,21,16,26,13,6,89,71,56,30.17,29.96,5,2,11,0.00
2013-2-3,33,26,18,28,15,10,89,65,46,30.16,29.76,8,2,16,0.04
2013-2-4,34,25,19,26,18,13,83,74,69,29.97,29.72,4,1,7,0.00
2013-2-5,44,32,21,32,25,16,85,76,63,30.07,29.77,6,1,12,0.07
2013-2-6,45,36,26,33,29,23,91,76,60,30.08,29.86,2,0,12,0.00
2013-2-7,41,35,28,40,32,24,94,90,73,30.14,29.82,6,2,12,0.93
2013-2-8,29,27,25,24,23,20,88,84,80,30.33,30.14,3,0,9,0.00
2013-2-9,38,32,27,31,27,23,90,84,73,30.23,29.79,2,1,7,0.12
2013-2-10,52,38,32,47,34,22,99,84,59,29.78,29.22,9,3,18,0.13
2013-2-11,33,31,28,24,22,19,75,69,64,30.09,29.58,10,5,22,0.00
2013-2-12,44,33,22,25,22,18,85,65,41,30.11,29.83,3,1,10,0.00
2013-2-13,50,38,26,29,26,22,83,63,41,29.83,29.63,4,1,8,0.00
2013-2-14,44,36,25,30,26,14,79,68,52,30.12,29.65,6,3,13,0.00
2013-2-15,27,22,16,14,10,5,73,59,42,30.28,30.13,6,1,12,0.00
2013-2-16,35,23,12,16,12,7,82,63,39,30.27,30.06,3,0,9,0.00
2013-2-17,48,34,21,25,21,15,81,60,39,30.06,29.61,3,0,8,0.00
2013-2-18,43,33,17,33,23,7,81,67,58,29.88,29.49,9,4,20,0.00
2013-2-19,22,16,10,8,3,-1,68,55,41,30.35,29.89,9,5,16,0.00
2013-2-20,22,13,2,8,0,-7,69,56,41,30.43,30.28,2,0,8,0.00
2013-2-21,24,21,18,22,15,8,92,76,60,30.31,29.79,4,1,11,0.00
2013-2-22,28,24,22,24,20,15,92,83,71,29.96,29.73,4,1,11,0.12
2013-2-23,33,24,14,19,15,9,83,70,55,29.96,29.87,2,0,8,0.11
2013-2-24,42,29,16,28,20,12,85,72,54,30.03,29.90,1,0,2,0.12
2013-2-25,40,34,28,30,26,22,85,75,62,30.04,29.83,1,0,3,0.00
2013-2-26,33,31,29,29,28,25,93,88,78,29.83,29.61,7,2,8,0.07
2013-2-27,31,28,25,28,25,22,93,88,77,29.94,29.73,6,2,9,0.04
2013-2-28,32,27,23,24,21,19,85,79,68,30.13,29.94,4,2,13,0.04
2013-3-1,29,26,24,22,20,15,86,77,67,30.29,30.11,2,1,7,0.03
2013-3-2,30,24,18,17,15,12,80,69,57,30.30,30.15,3,1,8,0.14
2013-3-3,36,28,18,23,18,13,80,68,52,30.15,29.86,2,0,7,0.06
2013-3-4,40,33,29,30,27,23,88,78,63,29.89,29.72,3,1,8,0.01
2013-3-5,32,29,26,29,23,18,91,78,66,30.24,29.88,8,4,16,0.06
2013-3-6,31,26,19,21,18,15,83,73,60,30.39,30.25,4,1,13,0.01
2013-3-7,36,26,16,24,19,12,89,76,58,30.34,30.22,3,0,6,0.00
2013-3-8,45,35,24,33,27,20,89,75,58,30.25,29.99,1,0,8,0.02
2013-3-9,46,40,38,45,38,32,98,92,77,29.99,29.56,1,0,8,0.66
2013-3-10,40,35,32,40,35,31,100,98,98,29.68,29.56,4,2,8,0.33
2013-3-11,31,27,24,31,24,18,98,88,73,29.92,29.67,5,2,13,0.02
2013-3-12,34,26,21,25,20,16,86,75,64,30.22,29.92,8,3,19,0.03
2013-3-13,34,26,17,20,16,12,80,66,47,30.42,30.22,3,1,11,0.02
2013-3-14,51,39,28,35,28,20,80,66,51,30.28,30.01,4,1,7,0.00
2013-3-15,60,44,31,45,36,27,92,76,53,30.01,29.63,1,0,5,0.00
2013-3-18,28,26,24,16,14,13,66,61,56,29.95,29.86,6,3,19,0.18
2013-3-19,40,27,18,20,12,7,71,54,34,30.20,29.94,5,2,14,0.01
2013-3-20,27,22,15,19,8,2,73,57,41,30.31,30.11,8,4,16,0.00
2013-3-21,36,24,12,16,10,4,72,56,36,30.11,29.93,1,0,5,0.00
2013-3-22,38,29,18,23,17,14,81,62,41,30.03,29.94,1,0,7,0.00
2013-3-23,38,31,27,28,22,18,92,70,45,30.08,29.94,2,0,4,0.00
2013-3-24,31,29,27,27,26,25,92,90,86,29.98,29.84,3,1,6,0.09
2013-3-25,35,30,27,26,23,18,93,76,52,30.22,29.92,5,2,8,0.16
2013-3-26,36,29,22,22,19,16,78,66,51,30.32,30.22,4,1,8,0.01
2013-3-27,46,35,23,27,23,18,85,63,42,30.31,30.21,1,0,5,0.00
2013-3-28,57,43,29,34,29,24,83,60,37,30.26,30.14,2,0,6,0.00
2013-3-29,64,49,34,37,32,29,84,55,29,30.20,30.05,1,0,8,0.00
2013-3-30,59,50,46,51,44,34,95,77,59,30.04,29.77,2,0,6,0.10
2013-3-31,53,44,34,45,33,20,94,69,27,30.03,29.81,7,2,14,0.01
2013-4-1,40,31,23,21,16,12,72,54,33,30.25,30.03,5,2,11,0.00
2013-4-2,48,34,22,22,18,14,78,53,26,30.31,30.24,4,1,6,0.00
2013-4-3,51,38,26,22,19,16,75,49,27,30.36,30.20,1,0,4,0.00
2013-4-4,63,47,32,37,26,18,60,45,27,30.20,29.96,4,1,9,0.00
2013-4-5,62,49,34,36,30,24,77,50,27,30.12,29.76,2,0,7,0.00
2013-4-6,68,59,52,47,41,36,70,52,41,29.76,29.46,7,2,13,0.00
2013-4-7,71,54,39,45,40,35,87,64,36,29.85,29.58,2,0,7,0.00
2013-4-8,73,62,50,58,53,45,95,75,53,29.69,29.51,2,0,7,0.17
2013-4-9,72,57,44,63,54,42,97,90,71,29.75,29.59,5,1,7,0.45
2013-4-10,44,41,39,42,40,38,96,96,94,29.88,29.63,5,1,7,0.98
2013-4-11,40,38,36,39,35,31,97,91,80,29.67,29.55,5,1,12,0.26
2013-4-12,40,36,34,34,30,24,93,78,63,29.92,29.57,6,3,12,0.00
2013-4-13,51,42,30,36,29,21,77,60,46,29.97,29.76,4,1,9,0.00
2013-4-14,70,54,44,55,45,35,91,72,49,29.75,29.35,5,2,12,0.17
2013-4-15,52,43,40,45,33,26,88,67,49,30.00,29.57,5,1,11,0.01
2013-4-16,50,42,32,34,30,26,81,64,46,30.19,29.99,4,1,7,0.00
2013-4-17,49,43,40,48,40,34,99,90,64,30.14,29.55,7,2,14,2.91
2013-4-18,44,38,34,43,-5,-100,99,63,76,29.69,29.47,7,4,14,0.72
2013-4-19,44,37,30,28,24,21,79,62,42,30.03,29.66,8,5,19,0.00
2013-4-20,49,38,26,27,23,18,83,57,30,30.24,30.04,2,0,5,0.00
2013-4-21,68,54,41,43,36,27,68,52,30,30.20,30.01,3,1,13,0.00
2013-4-22,68,55,39,49,45,36,92,72,39,30.10,29.83,5,1,5,0.21
2013-4-23,42,37,33,36,28,21,91,73,54,30.09,29.96,5,3,12,0.00
2013-4-24,55,41,27,39,25,19,83,57,26,30.14,29.99,5,1,12,0.08
2013-4-25,63,48,33,38,32,28,84,56,28,30.24,30.07,4,1,7,0.01
2013-4-26,66,57,50,50,43,36,79,61,51,30.13,30.03,4,1,14,0.00
2013-4-27,67,55,43,48,44,40,92,70,46,30.14,29.91,2,0,7,0.00
2013-4-28,76,61,45,52,47,42,92,65,36,29.92,29.67,3,0,7,0.00
2013-4-29,83,68,55,61,55,50,84,65,39,29.70,29.46,1,0,5,0.00
2013-4-30,87,77,65,61,52,46,67,45,29,29.72,29.46,6,2,11,0.00
2013-5-1,64,52,41,47,41,34,79,66,52,30.21,29.73,6,3,11,0.00
2013-5-2,42,35,32,36,33,31,95,93,76,30.36,30.18,7,3,13,1.52
2013-5-3,33,33,32,33,32,31,98,96,94,30.29,29.90,4,2,7,0.43
2013-5-4,49,41,33,48,40,32,100,97,95,30.01,29.82,4,1,12,0.97
2013-5-5,59,50,43,54,48,42,99,93,81,30.05,29.97,4,1,7,0.02
2013-5-6,73,59,47,54,49,42,97,72,34,30.03,29.92,3,1,8,0.00
2013-5-7,78,66,50,52,47,41,90,56,28,29.98,29.87,1,0,3,0.00
2013-5-8,70,62,55,60,54,48,91,74,53,29.91,29.81,1,0,1,0.06
2013-5-9,70,61,56,60,57,53,96,87,61,29.83,29.74,4,0,7,0.43
2013-5-10,66,56,49,53,49,46,95,78,51,29.96,29.82,4,1,8,0.00
2013-5-11,57,53,44,48,30,19,83,46,23,30.13,29.89,8,3,13,0.00
2013-5-12,62,49,37,29,24,20,64,40,21,30.20,30.07,4,1,9,0.00
2013-5-13,77,61,43,51,38,28,62,45,27,30.08,29.76,2,0,8,0.00
2013-5-14,94,78,60,63,55,47,81,50,28,29.76,29.50,2,0,7,0.00
2013-5-15,83,74,64,52,45,39,52,37,23,29.80,29.64,2,0,6,0.00
2013-5-16,82,71,60,66,59,45,86,68,42,29.81,29.68,1,0,7,0.04
2013-5-17,81,72,62,63,60,59,91,70,51,29.82,29.73,1,0,6,0.00
2013-5-18,85,73,62,64,62,58,90,69,48,29.84,29.65,1,0,7,0.00
2013-5-19,87,73,60,68,62,58,95,72,39,29.69,29.43,6,0,11,1.14
2013-5-20,81,68,60,64,59,56,96,76,47,29.57,29.43,4,1,11,0.07
2013-5-21,72,64,58,58,52,47,92,69,46,29.59,29.48,4,1,11,0.00
2013-5-22,61,57,55,57,52,49,93,83,73,29.80,29.56,2,1,6,0.03
2013-5-23,71,61,53,51,48,40,92,66,34,30.17,29.80,1,0,9,0.00
2013-5-24,71,61,49,52,46,42,78,61,38,30.27,30.06,1,0,6,0.02
2013-5-25,61,55,51,56,51,47,96,87,69,30.15,30.03,1,0,11,0.89
2013-5-26,63,57,52,60,54,49,95,91,87,30.06,29.82,4,0,5,0.19
2013-5-27,74,65,59,64,61,58,99,87,63,29.91,29.60,2,0,9,0.76
2013-5-28,80,69,64,69,65,60,98,86,60,29.67,29.53,1,0,4,0.64
2013-5-29,82,72,64,71,64,58,89,76,61,29.70,29.56,1,0,8,0.01
2013-5-30,74,68,63,66,62,59,94,80,67,29.59,29.47,2,0,15,0.11
2013-5-31,76,69,62,64,62,60,97,80,64,29.62,29.53,2,0,9,0.01
2013-6-1,68,63,57,62,55,50,90,77,66,29.83,29.53,2,1,9,0.01
2013-6-2,66,58,53,51,46,43,79,65,45,29.99,29.83,1,0,7,0.00
2013-6-3,73,61,47,51,48,44,91,64,40,30.00,29.85,1,0,6,0.00
2013-6-4,67,61,56,63,56,50,94,85,71,29.96,29.86,1,0,9,0.22
2013-6-5,68,64,61,62,60,53,96,87,66,29.91,29.82,1,0,5,0.03
2013-6-6,71,62,52,57,52,49,91,71,51,29.89,29.82,2,0,6,0.00
2013-6-7,69,60,51,55,51,48,94,73,52,29.93,29.83,1,0,6,0.00
2013-6-8,75,64,53,62,55,50,93,75,49,29.85,29.68,1,0,3,0.06
2013-6-9,73,65,61,64,61,58,96,86,66,29.70,29.61,3,0,5,0.24
2013-6-10,79,68,60,64,62,58,99,82,57,29.81,29.66,1,0,1,0.00
2013-6-11,87,75,64,73,67,62,92,78,57,29.80,29.64,0,0,4,0.00
2013-6-12,90,77,66,72,67,57,92,73,49,29.76,29.56,4,1,11,0.02
2013-6-13,82,72,61,61,57,52,83,60,37,29.95,29.76,2,0,11,0.00
2013-6-14,76,68,65,67,61,56,94,77,60,29.95,29.75,4,0,4,0.59
2013-6-15,82,71,64,73,67,63,97,88,68,29.95,29.75,3,0,12,0.57
2013-6-16,85,75,66,69,63,56,96,70,38,29.87,29.81,0,0,3,0.00
2013-6-17,88,77,66,66,59,49,92,57,27,29.87,29.79,1,0,5,0.00
2013-6-18,84,74,63,62,57,52,80,57,34,29.91,29.83,1,0,7,0.00
2013-6-19,84,74,64,67,63,60,89,69,46,29.96,29.86,1,0,1,0.00
2013-6-20,88,78,67,70,65,61,84,65,47,29.92,29.80,1,0,11,0.00
2013-6-21,90,80,75,76,71,66,85,73,60,29.87,29.75,1,0,8,0.02
2013-6-22,92,83,76,74,71,69,80,68,53,29.88,29.72,1,0,4,0.00
2013-6-23,79,75,65,71,68,63,95,81,68,29.85,29.70,2,0,10,0.74
2013-6-24,79,72,68,74,69,66,95,88,78,29.84,29.71,2,0,5,0.12
2013-6-25,88,78,71,74,71,67,95,80,52,29.73,29.60,1,0,1,0.00
2013-6-26,90,82,74,76,70,64,89,70,42,29.73,29.54,3,0,8,0.00
2013-6-27,86,77,68,70,66,63,84,69,53,29.84,29.73,2,0,7,0.00
2013-6-28,85,77,70,64,57,50,75,52,31,29.78,29.67,5,1,10,0.00
2013-6-29,75,70,65,65,58,55,92,67,50,29.80,29.66,3,0,11,0.19
2013-6-30,78,69,60,59,54,49,84,61,36,29.97,29.80,1,0,3,0.00
2013-7-1,65,59,57,54,51,50,85,74,58,30.03,29.97,0,0,0,0.00
2013-7-6,88,82,77,66,65,64,67,56,45,29.80,29.75,0,0,9,0.00
2013-7-7,92,80,69,73,67,63,83,65,42,29.81,29.74,1,0,16,0.02
2013-7-8,86,80,76,75,70,66,81,71,60,29.86,29.79,1,0,4,0.00
2013-7-9,91,83,75,76,73,70,91,74,57,29.86,29.74,1,0,3,0.03
2013-7-10,83,78,70,75,61,51,82,59,34,29.94,29.77,1,0,2,0.00
2013-7-11,84,74,62,61,58,54,88,59,37,30.01,29.91,1,0,5,0.00
2013-7-12,86,75,63,62,59,57,84,60,41,29.98,29.89,1,0,5,0.00
2013-7-13,80,73,65,66,60,53,73,64,58,29.95,29.90,1,0,4,0.00
2013-7-14,87,76,64,65,62,59,88,64,42,30.06,29.95,1,0,1,0.00
2013-7-15,90,79,69,72,67,62,84,68,50,30.12,30.02,1,0,2,0.00
2013-7-16,92,83,72,72,70,67,91,67,44,30.14,30.08,0,0,3,0.00
2013-7-17,94,84,74,72,69,66,87,64,41,30.18,30.06,0,0,1,0.00
2013-7-18,94,85,74,72,68,63,87,60,36,30.07,29.82,2,0,5,0.00
2013-7-19,93,84,75,72,68,64,76,58,44,29.82,29.70,2,0,12,0.00
2013-7-20,89,78,66,64,61,51,85,57,29,29.86,29.75,0,0,1,0.00
2013-7-21,82,73,68,70,66,62,95,78,54,29.81,29.69,0,0,0,0.50
2013-7-22,92,78,66,74,68,61,95,74,48,29.78,29.62,2,0,6,0.08
2013-7-23,77,70,64,65,60,56,90,73,55,29.89,29.68,2,0,2,0.00
2013-7-24,80,70,58,60,57,55,91,66,46,29.97,29.88,0,0,1,0.00
2013-7-25,85,73,63,66,62,58,87,69,49,29.97,29.87,2,0,3,0.00
2013-7-26,78,71,62,69,60,52,95,69,42,29.94,29.85,3,0,8,0.27
2013-7-27,71,62,53,53,48,44,90,63,40,30.00,29.90,2,0,5,0.00
2013-7-28,76,64,51,53,48,45,82,58,36,29.97,29.91,2,0,5,0.00
2013-7-29,74,65,55,59,55,51,88,70,51,30.03,29.97,1,0,4,0.00
2013-7-30,71,69,64,67,66,63,97,92,87,29.99,29.94,0,0,2,0.26
2013-7-31,83,73,66,66,64,61,96,76,49,30.03,29.91,1,0,2,0.00
2013-8-1,87,76,63,66,62,53,93,66,32,29.98,29.79,1,0,4,0.00
2013-8-2,83,74,67,67,63,55,87,70,54,29.90,29.78,0,0,4,0.00
2013-8-3,79,71,62,60,56,51,85,62,38,30.07,29.90,0,0,0,0.00
2013-8-4,82,71,58,60,57,54,90,62,41,30.09,29.95,1,0,3,0.00
2013-8-5,83,74,66,72,67,60,92,79,67,29.95,29.71,1,0,5,0.01
2013-8-6,90,76,69,74,69,66,95,81,50,29.78,29.67,1,0,1,1.53
2013-8-7,81,74,67,70,65,61,97,77,51,29.89,29.69,1,0,4,0.00
2013-8-8,79,71,60,64,61,57,90,72,51,29.93,29.84,0,0,0,0.00
2013-8-9,80,73,66,67,62,56,89,71,52,30.02,29.90,0,0,5,0.00
2013-8-10,82,71,59,62,58,55,90,64,42,30.11,30.00,0,0,3,0.00
2013-8-11,86,75,64,64,60,58,81,62,41,30.03,29.88,1,0,5,0.00
2013-8-12,83,74,67,70,63,56,96,72,44,29.96,29.87,2,0,4,0.71
2013-8-13,78,68,58,61,56,53,92,69,47,30.08,29.94,0,0,0,0.00
2013-8-14,74,66,56,55,51,47,82,61,39,30.14,30.03,0,0,1,0.00
2013-8-15,70,64,60,58,54,51,92,70,55,30.07,30.01,1,0,4,0.07
2013-8-16,78,67,56,59,54,52,92,66,41,30.11,30.04,0,0,1,0.00
2013-8-17,80,70,56,58,54,52,92,61,39,30.13,30.02,0,0,0,0.00
2013-8-18,82,71,58,60,57,54,86,62,41,30.08,29.96,0,0,2,0.00
2013-8-19,84,73,62,65,61,57,89,67,46,30.00,29.88,1,0,3,0.00
2013-8-20,89,78,68,68,64,60,82,64,44,29.91,29.83,1,0,7,0.00
2013-8-21,92,81,71,70,66,65,84,64,45,29.90,29.84,1,0,7,0.00
2013-8-22,81,76,73,69,67,66,85,74,64,30.00,29.87,1,0,2,0.00
2013-8-23,89,78,68,73,69,66,95,78,51,30.01,29.91,0,0,5,0.00
2013-8-24,92,81,71,72,68,66,89,68,44,30.03,29.93,1,0,6,0.00
2013-8-25,94,83,72,71,67,64,78,60,40,30.06,29.95,1,0,5,0.00
2013-8-26,96,84,73,72,68,64,88,62,36,29.99,29.84,2,0,8,0.00
2013-8-27,96,85,74,69,68,65,82,59,38,29.86,29.75,4,1,9,0.00
2013-8-28,96,84,73,68,65,63,74,55,34,29.88,29.80,2,0,5,0.00
2013-8-29,93,83,72,73,69,65,83,65,47,29.92,29.79,1,0,4,0.00
2013-8-30,101,86,74,76,69,61,87,62,27,29.80,29.65,2,0,6,0.00
2013-8-31,90,81,71,74,68,63,91,69,41,29.72,29.65,0,0,4,0.00
2013-9-1,83,75,67,69,63,56,94,69,40,29.84,29.63,3,0,6,0.27
2013-9-2,79,68,57,58,54,50,93,66,37,29.96,29.85,1,0,5,0.00
2013-9-3,80,67,52,57,54,49,92,67,42,30.03,29.93,0,0,3,0.00
2013-9-4,88,75,61,63,58,53,80,57,34,30.05,29.95,0,0,3,0.00
2013-9-5,90,78,69,66,63,60,82,61,41,30.08,29.99,0,0,0,0.00
2013-9-6,91,78,66,66,60,53,82,56,28,30.02,29.83,1,0,1,0.00
2013-9-7,96,82,73,70,66,60,74,60,38,29.84,29.71,1,0,5,0.00
2013-9-8,89,79,71,73,70,68,92,76,57,29.81,29.69,0,0,3,0.00
2013-9-9,98,84,72,71,64,58,89,56,27,29.75,29.68,3,0,7,0.00
2013-9-10,96,84,71,64,61,58,71,49,28,29.87,29.75,5,0,13,0.00
2013-9-11,85,78,72,69,66,62,88,67,56,29.98,29.87,1,0,2,0.00
2013-9-12,80,72,63,64,52,42,80,53,27,30.08,29.95,2,0,4,0.00
2013-9-13,74,63,52,49,46,41,83,56,32,30.14,30.00,1,0,3,0.00
2013-9-14,77,64,48,45,42,38,76,49,27,30.04,29.83,1,0,3,0.00
2013-9-15,68,64,60,64,56,44,94,76,43,30.13,29.77,1,0,6,0.75
2013-9-16,63,58,53,55,53,51,94,83,70,30.28,30.13,1,0,1,0.01
2013-9-17,65,59,55,64,57,52,96,93,87,30.17,29.90,0,0,2,0.71
2013-9-18,89,76,65,70,67,64,96,76,48,29.91,29.65,1,0,6,0.01
2013-9-19,85,74,65,70,67,61,96,80,53,29.76,29.59,5,0,13,1.24
2013-9-20,69,61,54,64,52,48,96,73,51,29.90,29.76,3,0,6,0.00
2013-9-21,71,58,46,48,45,42,91,65,36,29.95,29.82,1,0,4,0.00
2013-9-22,78,64,51,54,50,45,82,63,42,29.90,29.78,1,0,2,0.00
2013-9-23,76,63,52,54,50,48,89,65,39,29.87,29.74,1,0,3,0.00
2013-9-24,72,63,56,64,56,50,85,77,61,29.80,29.73,0,0,0,0.00
2013-9-25,79,66,53,60,56,50,90,72,52,29.84,29.73,1,0,2,0.00
2013-9-26,84,71,59,64,60,57,93,72,47,29.84,29.75,2,0,6,0.01
2013-9-27,85,74,66,64,61,59,88,67,43,29.87,29.76,1,0,6,0.00
2013-9-28,70,63,53,66,58,48,93,83,70,29.95,29.68,3,0,10,0.18
2013-9-29,74,59,46,52,46,42,92,66,32,30.00,29.84,1,0,1,0.01
2013-9-30,77,62,50,59,50,46,92,68,37,29.85,29.66,1,0,4,0.00
2013-10-1,81,69,59,59,57,55,87,67,43,29.86,29.71,1,0,4,0.00
2013-10-2,84,72,61,65,59,52,83,65,47,29.92,29.76,1,0,8,0.00
2013-10-3,78,71,66,68,65,62,96,81,60,29.76,29.65,0,0,4,0.21
2013-10-4,79,70,64,72,66,62,98,88,73,29.78,29.62,3,0,14,1.12
2013-10-5,71,55,48,68,42,34,90,61,42,29.84,29.70,3,1,8,0.00
2013-10-6,50,47,43,47,41,34,94,82,60,29.84,29.66,3,1,8,0.16
2013-10-7,72,57,43,47,43,39,89,64,30,29.99,29.84,3,0,9,0.00
2013-10-8,76,62,50,48,46,42,81,58,30,29.99,29.89,2,0,6,0.00
2013-10-9,75,62,50,51,48,45,89,63,34,30.02,29.93,1,0,8,0.00
2013-10-10,78,62,49,55,48,44,87,63,33,29.98,29.80,1,0,7,0.00
2013-10-11,73,70,66,63,62,61,87,76,67,29.73,29.65,1,0,11,0.08
2013-10-12,66,57,48,61,41,32,89,58,29,30.17,29.72,2,0,8,0.01
2013-10-13,65,52,38,39,36,32,84,57,31,30.37,30.17,0,0,0,0.00
2013-10-14,65,55,43,47,38,33,69,54,37,30.28,29.74,2,0,10,0.01
2013-10-15,60,52,47,58,45,40,95,77,63,29.88,29.69,4,1,11,0.18
2013-10-16,50,47,42,43,41,38,88,81,73,29.95,29.88,2,0,13,0.00
2013-10-17,63,49,38,44,38,33,93,69,34,29.89,29.77,2,0,7,0.00
2013-10-18,49,44,38,41,33,29,88,67,46,30.00,29.89,3,0,10,0.00
2013-10-19,58,46,34,35,32,26,88,60,31,29.92,29.74,4,1,9,0.01
2013-10-20,62,50,39,46,38,31,84,66,47,29.85,29.65,2,0,3,0.00
2013-10-21,49,42,36,39,30,24,82,62,44,30.01,29.85,3,1,7,0.00
2013-10-22,44,40,35,39,35,29,89,83,72,30.02,29.79,1,0,1,0.02
2013-10-23,38,37,36,36,33,28,92,86,69,30.11,30.01,2,0,4,0.04
2013-10-24,44,37,30,34,28,24,91,71,55,30.33,30.11,2,0,5,0.00
2013-10-25,55,42,27,29,26,22,85,58,34,30.37,30.00,4,1,10,0.00
2013-10-26,52,46,36,34,29,24,71,53,35,30.09,29.90,3,1,8,0.00
2013-10-27,62,45,29,33,29,24,86,58,32,30.08,29.81,2,0,6,0.00
2013-10-28,56,45,36,38,34,30,82,66,45,30.21,29.91,1,0,3,0.00
2013-10-29,58,48,40,50,42,35,90,79,67,30.21,29.93,1,0,4,0.00
2013-10-30,62,56,53,61,55,50,98,96,90,29.93,29.55,1,0,2,0.77
2013-10-31,61,46,42,61,44,40,98,92,82,29.57,29.38,1,0,6,0.03
2013-11-1,56,47,40,42,38,35,90,72,47,29.80,29.45,4,1,10,0.00
2013-11-2,53,46,39,40,35,30,84,68,41,30.07,29.81,2,0,7,0.00
2013-11-3,56,46,35,36,33,30,86,63,38,30.09,29.84,2,1,10,0.00
2013-11-4,55,50,46,47,43,36,92,76,60,30.07,29.83,2,0,8,0.16
2013-11-5,58,50,45,57,48,40,98,90,76,30.09,29.71,2,0,4,0.48
2013-11-6,45,38,31,44,32,26,97,78,50,30.22,29.76,4,1,10,0.01
2013-11-7,47,36,29,33,27,23,91,71,49,30.28,30.19,3,0,7,0.01
2013-11-8,60,45,29,36,29,22,76,57,38,30.25,29.74,3,0,7,0.00
2013-11-9,58,50,41,37,34,28,70,55,38,30.23,29.79,6,2,11,0.00
2013-11-10,49,41,28,32,28,23,82,61,42,30.38,30.11,1,0,5,0.00
2013-11-11,49,35,18,40,26,10,87,70,51,30.65,30.03,4,1,5,0.00
2013-11-12,27,19,10,13,10,6,81,67,49,30.84,30.58,3,0,6,0.02
2013-11-13,49,34,19,20,14,9,67,47,29,30.58,30.02,3,1,10,0.00
2013-11-14,54,43,35,29,25,18,64,50,35,30.02,29.83,3,0,8,0.00
2013-11-15,57,44,33,39,32,26,81,63,41,29.86,29.65,1,0,5,0.00
2013-11-16,68,57,45,57,51,39,89,80,62,29.66,29.24,4,0,10,0.05
2013-11-17,57,49,41,54,44,35,94,83,70,29.90,29.17,5,1,10,0.71
2013-11-18,47,40,34,35,30,28,83,70,51,30.21,29.91,6,2,11,0.00
2013-11-19,55,43,32,32,29,27,84,61,37,30.21,29.95,3,1,5,0.00
2013-11-20,46,40,36,37,33,24,90,77,42,29.95,29.82,3,0,7,0.14
2013-11-21,39,32,26,38,30,23,95,92,90,30.39,29.94,4,1,7,0.03
2013-11-22,26,21,16,23,15,9,95,79,63,30.61,30.39,5,2,12,0.00
2013-11-23,19,14,7,11,4,0,76,64,48,30.82,30.56,3,1,7,0.00
2013-11-24,27,16,4,12,6,-1,80,64,43,30.76,30.26,2,0,5,0.01
2013-11-25,37,30,24,27,20,12,83,67,57,30.26,30.07,3,1,11,0.03
2013-11-26,30,25,17,24,14,6,84,65,45,30.33,30.09,6,2,13,0.01
2013-11-27,27,20,10,13,8,4,77,62,47,30.38,30.06,1,0,3,0.00
2013-11-28,32,26,20,16,14,13,72,61,49,30.49,30.03,4,1,7,0.00
2013-11-29,41,28,15,25,18,9,83,67,48,30.49,30.19,1,0,5,0.01
2013-11-30,52,40,31,32,28,24,78,63,46,30.19,29.99,3,0,7,0.00
2013-12-1,42,35,27,29,27,22,85,73,58,30.10,29.86,1,0,2,0.00
2013-12-2,54,41,32,41,33,28,83,75,59,29.85,29.48,1,0,3,0.00
2013-12-3,45,40,37,41,37,35,95,90,83,29.59,29.46,2,0,3,0.00
2013-12-4,39,32,18,37,29,12,95,90,74,29.88,29.45,6,2,11,0.03
2013-12-5,18,14,8,12,4,-3,75,64,56,30.40,29.89,6,3,12,0.00
2013-12-6,12,7,2,-1,-4,-7,66,60,50,30.68,30.39,3,1,9,0.00
2013-12-7,14,6,-3,0,-6,-10,72,60,43,30.78,30.52,1,0,8,0.00
2013-12-8,19,15,11,15,9,0,85,76,59,30.52,29.99,1,0,4,0.00
2013-12-9,15,5,0,11,-3,-8,85,69,53,30.31,30.06,3,1,6,0.00
2013-12-10,23,17,3,13,6,-5,71,61,49,30.22,30.02,4,1,16,0.00
2013-12-11,24,9,3,19,-1,-8,82,64,51,30.60,30.19,4,0,8,0.00
2013-12-12,31,18,3,17,7,-6,75,63,55,30.51,30.11,3,0,5,0.03
2013-12-13,35,26,19,27,20,12,83,78,70,30.10,29.89,1,0,3,0.04
2013-12-14,25,20,15,20,16,9,89,82,73,30.14,29.99,4,2,8,0.00
2013-12-15,20,16,11,10,7,4,78,70,60,30.13,30.00,3,0,10,0.00
2013-12-16,30,22,15,24,17,9,86,81,76,30.10,29.96,2,0,3,0.00
2013-12-17,38,30,23,27,19,12,86,65,41,30.17,30.06,8,2,19,0.00
2013-12-18,51,37,21,32,24,12,76,60,45,30.14,29.69,4,1,9,0.00
2013-12-19,40,34,29,31,29,25,92,82,71,29.79,29.66,4,0,5,0.02
2013-12-20,29,24,20,27,22,18,92,91,89,29.87,29.73,4,2,7,0.00
2013-12-21,25,22,20,23,19,16,91,86,80,29.86,29.69,3,1,6,0.00
2013-12-22,25,18,6,23,14,-1,92,82,71,30.31,29.71,5,2,9,0.00
2013-12-23,7,2,-5,-1,-9,-16,74,59,43,30.58,30.31,4,1,9,0.00
2013-12-24,18,3,-15,14,-7,-24,85,62,52,30.58,30.21,1,0,6,0.00
2013-12-25,34,25,18,28,20,14,89,80,66,30.24,30.13,5,1,12,0.01
2013-12-26,38,28,19,25,20,12,83,72,56,30.22,30.05,4,0,7,0.15
2013-12-27,48,35,20,28,24,16,86,66,45,30.21,30.04,3,0,6,0.10
2013-12-28,49,40,29,30,28,24,82,63,46,30.04,29.73,8,1,10,0.00
2013-12-29,28,10,0,23,-2,-13,82,61,39,30.32,29.88,9,5,15,0.00
2013-12-30,17,9,-2,12,-1,-13,79,65,51,30.32,30.12,1,0,2,0.00
2013-12-31,17,11,8,10,5,2,79,75,68,30.30,30.12,1,0,7,0.00
2014-1-1,10,8,4,4,2,-2,80,77,74,30.35,30.17,3,1,4,0.00
2014-1-2,9,3,-4,-2,-6,-12,75,66,52,30.49,30.33,3,1,6,0.00